| Date | Time | Temp. (oF) | Dew Point (oF) | Rel. Hum. (%) | Press. (in.) | Wind Dir. | Wind Speed (mph) | Hourly Rainfall (in.) |
|
|---|---|---|---|---|---|---|---|---|---|
| 1 | 12/28 | 00:00 | 45 | 37 | 74 | 30.09 | E | 14 | 0.00 |
| 2 | 12/27 | 23:00 | 47 | 41 | 81 | 30.06 | NNW | 12 | 0.00 |
| 3 | 12/27 | 22:00 | 48 | 42 | 82 | 30.01 | N | 11 | 0.01 |
| 4 | 12/27 | 21:00 | 53 | 48 | 84 | 29.97 | NE | 5 | 0.01 |
| 5 | 12/27 | 20:00 | 55 | 50 | 85 | 29.92 | ENE | 7 | 0.02 |
| 6 | 12/27 | 19:00 | 59 | 54 | 86 | 29.85 | W | 0 | 0.04 |
| 7 | 12/27 | 18:00 | 59 | 54 | 86 | 29.82 | WNW | 1 | 0.09 |
| 8 | 12/27 | 17:00 | 66 | 58 | 78 | 29.77 | WNW | 0 | 0.00 |
| 9 | 12/27 | 16:00 | 67 | 59 | 77 | 29.74 | SW | 4 | 0.00 |
| 10 | 12/27 | 15:00 | 68 | 59 | 75 | 29.72 | SW | 8 | 0.00 |
| 11 | 12/27 | 14:00 | 65 | 59 | 83 | 29.75 | SW | 9 | 0.00 |
| 12 | 12/27 | 13:00 | 62 | 57 | 86 | 29.78 | SW | 7 | 0.00 |
| 13 | 12/27 | 12:00 | 58 | 53 | 85 | 29.83 | SW | 4 | 0.00 |
| 14 | 12/27 | 11:00 | 55 | 49 | 82 | 29.88 | SW | 5 | 0.00 |
| 15 | 12/27 | 10:00 | 53 | 47 | 82 | 29.92 | SW | 9 | 0.00 |
| 16 | 12/27 | 09:00 | 51 | 46 | 83 | 29.94 | SW | 5 | 0.00 |
| 17 | 12/27 | 08:00 | 49 | 44 | 85 | 29.95 | SW | 6 | 0.01 |
| 18 | 12/27 | 07:00 | 49 | 44 | 85 | 29.98 | SW | 4 | 0.00 |
| 19 | 12/27 | 06:00 | 48 | 44 | 86 | 29.99 | SSW | 4 | 0.00 |
| 20 | 12/27 | 05:00 | 47 | 43 | 86 | 30.02 | WSW | 2 | 0.00 |
| 21 | 12/27 | 04:00 | 47 | 43 | 87 | 30.06 | SSW | 5 | 0.00 |
| 22 | 12/27 | 03:00 | 47 | 43 | 88 | 30.09 | SW | 1 | 0.00 |
| 23 | 12/27 | 02:00 | 47 | 43 | 88 | 30.12 | SW | 0 | 0.00 |
| 24 | 12/27 | 01:00 | 47 | 43 | 88 | 30.14 | ESE | 0 | 0.00 |